sensor_id;sensor_type;location;lat;lon;timestamp;P1;durP1;ratioP1;P2;durP2;ratioP2
52674;SDS011;38569;52.722;6.440;2023-04-24T00:00:54;4.38;;;2.10;;
52674;SDS011;38569;52.722;6.440;2023-04-24T00:03:22;2.75;;;1.80;;
52674;SDS011;38569;52.722;6.440;2023-04-24T00:05:48;2.38;;;2.17;;
52674;SDS011;38569;52.722;6.440;2023-04-24T00:08:14;2.65;;;2.17;;
52674;SDS011;38569;52.722;6.440;2023-04-24T00:10:39;2.75;;;2.17;;
52674;SDS011;38569;52.722;6.440;2023-04-24T00:13:06;3.47;;;2.47;;
52674;SDS011;38569;52.722;6.440;2023-04-24T00:15:32;2.92;;;2.45;;
52674;SDS011;38569;52.722;6.440;2023-04-24T00:17:58;2.50;;;2.25;;
52674;SDS011;38569;52.722;6.440;2023-04-24T00:20:23;2.70;;;2.42;;
52674;SDS011;38569;52.722;6.440;2023-04-24T00:22:49;3.92;;;3.17;;
52674;SDS011;38569;52.722;6.440;2023-04-24T00:25:15;3.97;;;2.92;;
52674;SDS011;38569;52.722;6.440;2023-04-24T00:27:41;4.35;;;3.78;;
52674;SDS011;38569;52.722;6.440;2023-04-24T00:30:06;4.03;;;3.63;;
52674;SDS011;38569;52.722;6.440;2023-04-24T00:32:32;4.40;;;4.00;;
52674;SDS011;38569;52.722;6.440;2023-04-24T00:34:58;4.60;;;4.10;;
52674;SDS011;38569;52.722;6.440;2023-04-24T00:37:24;4.75;;;4.30;;
52674;SDS011;38569;52.722;6.440;2023-04-24T00:39:50;5.20;;;4.70;;
52674;SDS011;38569;52.722;6.440;2023-04-24T00:42:16;5.43;;;4.85;;
52674;SDS011;38569;52.722;6.440;2023-04-24T00:44:41;4.60;;;4.20;;
52674;SDS011;38569;52.722;6.440;2023-04-24T00:47:07;5.85;;;5.25;;
52674;SDS011;38569;52.722;6.440;2023-04-24T00:49:33;6.78;;;5.53;;
52674;SDS011;38569;52.722;6.440;2023-04-24T00:51:59;6.07;;;5.20;;
52674;SDS011;38569;52.722;6.440;2023-04-24T00:54:24;7.03;;;6.32;;
52674;SDS011;38569;52.722;6.440;2023-04-24T00:56:50;7.00;;;6.15;;
52674;SDS011;38569;52.722;6.440;2023-04-24T00:59:16;7.03;;;6.32;;
52674;SDS011;38569;52.722;6.440;2023-04-24T01:01:43;6.30;;;5.70;;
52674;SDS011;38569;52.722;6.440;2023-04-24T01:04:11;6.20;;;5.60;;
52674;SDS011;38569;52.722;6.440;2023-04-24T01:06:40;5.82;;;5.22;;
52674;SDS011;38569;52.722;6.440;2023-04-24T01:09:08;6.18;;;5.57;;
52674;SDS011;38569;52.722;6.440;2023-04-24T01:11:36;6.43;;;5.40;;
52674;SDS011;38569;52.722;6.440;2023-04-24T01:14:02;4.75;;;4.10;;
52674;SDS011;38569;52.722;6.440;2023-04-24T01:16:28;6.38;;;5.78;;
52674;SDS011;38569;52.722;6.440;2023-04-24T01:18:54;6.32;;;5.03;;
52674;SDS011;38569;52.722;6.440;2023-04-24T01:21:20;6.05;;;5.47;;
52674;SDS011;38569;52.722;6.440;2023-04-24T01:23:46;5.85;;;5.35;;
52674;SDS011;38569;52.722;6.440;2023-04-24T01:26:13;5.90;;;5.40;;
52674;SDS011;38569;52.722;6.440;2023-04-24T01:28:40;6.18;;;5.57;;
52674;SDS011;38569;52.722;6.440;2023-04-24T01:31:06;6.18;;;5.57;;
52674;SDS011;38569;52.722;6.440;2023-04-24T01:33:32;5.10;;;4.70;;
52674;SDS011;38569;52.722;6.440;2023-04-24T01:35:58;5.38;;;4.88;;
52674;SDS011;38569;52.722;6.440;2023-04-24T01:38:23;5.82;;;5.32;;
52674;SDS011;38569;52.722;6.440;2023-04-24T01:40:49;5.10;;;4.70;;
52674;SDS011;38569;52.722;6.440;2023-04-24T01:43:16;5.43;;;4.97;;
52674;SDS011;38569;52.722;6.440;2023-04-24T01:45:42;5.32;;;4.80;;
52674;SDS011;38569;52.722;6.440;2023-04-24T01:48:08;5.00;;;4.60;;
52674;SDS011;38569;52.722;6.440;2023-04-24T01:50:34;4.50;;;4.10;;
52674;SDS011;38569;52.722;6.440;2023-04-24T01:53:00;4.60;;;4.05;;
52674;SDS011;38569;52.722;6.440;2023-04-24T01:55:26;4.75;;;4.10;;
52674;SDS011;38569;52.722;6.440;2023-04-24T01:57:52;6.82;;;4.50;;
52674;SDS011;38569;52.722;6.440;2023-04-24T02:00:21;4.38;;;4.05;;
52674;SDS011;38569;52.722;6.440;2023-04-24T02:02:46;4.28;;;3.90;;
52674;SDS011;38569;52.722;6.440;2023-04-24T02:05:12;5.38;;;4.88;;
52674;SDS011;38569;52.722;6.440;2023-04-24T02:07:38;4.20;;;3.80;;
52674;SDS011;38569;52.722;6.440;2023-04-24T02:10:03;6.60;;;4.63;;
52674;SDS011;38569;52.722;6.440;2023-04-24T02:12:30;5.22;;;4.75;;
52674;SDS011;38569;52.722;6.440;2023-04-24T02:14:56;6.22;;;4.70;;
52674;SDS011;38569;52.722;6.440;2023-04-24T02:17:21;4.95;;;4.47;;
52674;SDS011;38569;52.722;6.440;2023-04-24T02:19:47;6.10;;;3.58;;
52674;SDS011;38569;52.722;6.440;2023-04-24T02:22:13;4.25;;;3.85;;
52674;SDS011;38569;52.722;6.440;2023-04-24T02:24:39;7.00;;;4.50;;
52674;SDS011;38569;52.722;6.440;2023-04-24T02:27:05;4.90;;;4.40;;
52674;SDS011;38569;52.722;6.440;2023-04-24T02:29:30;4.88;;;4.38;;
52674;SDS011;38569;52.722;6.440;2023-04-24T02:31:56;5.90;;;4.05;;
52674;SDS011;38569;52.722;6.440;2023-04-24T02:34:22;5.07;;;4.57;;
52674;SDS011;38569;52.722;6.440;2023-04-24T02:36:48;5.80;;;5.30;;
52674;SDS011;38569;52.722;6.440;2023-04-24T02:39:14;5.05;;;4.55;;
52674;SDS011;38569;52.722;6.440;2023-04-24T02:41:43;5.03;;;4.60;;
52674;SDS011;38569;52.722;6.440;2023-04-24T02:44:09;5.53;;;5.03;;
52674;SDS011;38569;52.722;6.440;2023-04-24T02:46:35;5.85;;;5.35;;
52674;SDS011;38569;52.722;6.440;2023-04-24T02:49:01;7.03;;;6.32;;
52674;SDS011;38569;52.722;6.440;2023-04-24T02:51:27;5.45;;;4.95;;
52674;SDS011;38569;52.722;6.440;2023-04-24T02:53:53;8.02;;;5.50;;
52674;SDS011;38569;52.722;6.440;2023-04-24T02:56:19;6.10;;;5.50;;
52674;SDS011;38569;52.722;6.440;2023-04-24T02:58:45;5.68;;;5.18;;
52674;SDS011;38569;52.722;6.440;2023-04-24T03:01:10;5.82;;;5.22;;
52674;SDS011;38569;52.722;6.440;2023-04-24T03:03:37;6.55;;;5.50;;
52674;SDS011;38569;52.722;6.440;2023-04-24T03:06:03;6.75;;;5.63;;
52674;SDS011;38569;52.722;6.440;2023-04-24T03:08:31;5.53;;;5.03;;
52674;SDS011;38569;52.722;6.440;2023-04-24T03:10:57;5.25;;;4.85;;
52674;SDS011;38569;52.722;6.440;2023-04-24T03:13:22;4.95;;;4.55;;
52674;SDS011;38569;52.722;6.440;2023-04-24T03:15:48;5.03;;;4.63;;
52674;SDS011;38569;52.722;6.440;2023-04-24T03:18:14;7.95;;;4.43;;
52674;SDS011;38569;52.722;6.440;2023-04-24T03:20:40;3.78;;;3.28;;
52674;SDS011;38569;52.722;6.440;2023-04-24T03:23:06;4.22;;;3.42;;
52674;SDS011;38569;52.722;6.440;2023-04-24T03:25:31;5.03;;;3.85;;
52674;SDS011;38569;52.722;6.440;2023-04-24T03:27:57;4.32;;;3.92;;
52674;SDS011;38569;52.722;6.440;2023-04-24T03:30:23;3.80;;;3.47;;
52674;SDS011;38569;52.722;6.440;2023-04-24T03:32:49;4.97;;;4.20;;
52674;SDS011;38569;52.722;6.440;2023-04-24T03:35:14;4.20;;;3.80;;
52674;SDS011;38569;52.722;6.440;2023-04-24T03:37:40;4.13;;;3.72;;
52674;SDS011;38569;52.722;6.440;2023-04-24T03:40:06;3.60;;;3.20;;
52674;SDS011;38569;52.722;6.440;2023-04-24T03:42:33;4.60;;;3.05;;
52674;SDS011;38569;52.722;6.440;2023-04-24T03:44:58;3.15;;;2.85;;
52674;SDS011;38569;52.722;6.440;2023-04-24T03:47:24;2.95;;;2.70;;
52674;SDS011;38569;52.722;6.440;2023-04-24T03:49:50;2.70;;;2.45;;
52674;SDS011;38569;52.722;6.440;2023-04-24T03:52:16;4.28;;;2.28;;
52674;SDS011;38569;52.722;6.440;2023-04-24T03:54:41;2.85;;;2.53;;
52674;SDS011;38569;52.722;6.440;2023-04-24T03:57:07;2.50;;;2.30;;
52674;SDS011;38569;52.722;6.440;2023-04-24T03:59:33;3.03;;;2.58;;
52674;SDS011;38569;52.722;6.440;2023-04-24T04:01:58;3.22;;;2.92;;
52674;SDS011;38569;52.722;6.440;2023-04-24T04:04:24;5.53;;;3.55;;
52674;SDS011;38569;52.722;6.440;2023-04-24T04:06:50;5.55;;;3.63;;
52674;SDS011;38569;52.722;6.440;2023-04-24T04:09:16;4.85;;;4.35;;
52674;SDS011;38569;52.722;6.440;2023-04-24T04:11:41;6.03;;;4.45;;
52674;SDS011;38569;52.722;6.440;2023-04-24T04:14:07;3.90;;;3.50;;
52674;SDS011;38569;52.722;6.440;2023-04-24T04:16:33;4.25;;;3.85;;
52674;SDS011;38569;52.722;6.440;2023-04-24T04:18:59;5.03;;;4.50;;
52674;SDS011;38569;52.722;6.440;2023-04-24T04:21:24;4.47;;;4.07;;
52674;SDS011;38569;52.722;6.440;2023-04-24T04:23:52;4.63;;;4.07;;
52674;SDS011;38569;52.722;6.440;2023-04-24T04:26:17;5.22;;;4.40;;
52674;SDS011;38569;52.722;6.440;2023-04-24T04:28:44;4.78;;;4.00;;
52674;SDS011;38569;52.722;6.440;2023-04-24T04:31:09;4.10;;;3.63;;
52674;SDS011;38569;52.722;6.440;2023-04-24T04:33:35;4.60;;;3.13;;
52674;SDS011;38569;52.722;6.440;2023-04-24T04:36:03;3.20;;;2.50;;
52674;SDS011;38569;52.722;6.440;2023-04-24T04:38:30;4.00;;;3.00;;
52674;SDS011;38569;52.722;6.440;2023-04-24T04:40:56;4.75;;;2.30;;
52674;SDS011;38569;52.722;6.440;2023-04-24T04:43:24;3.13;;;2.83;;
52674;SDS011;38569;52.722;6.440;2023-04-24T04:45:51;3.78;;;2.50;;
52674;SDS011;38569;52.722;6.440;2023-04-24T04:48:17;2.97;;;2.28;;
52674;SDS011;38569;52.722;6.440;2023-04-24T04:50:43;3.58;;;2.70;;
52674;SDS011;38569;52.722;6.440;2023-04-24T04:53:10;3.10;;;2.45;;
52674;SDS011;38569;52.722;6.440;2023-04-24T04:55:36;4.00;;;2.63;;
52674;SDS011;38569;52.722;6.440;2023-04-24T04:58:02;4.75;;;2.15;;
52674;SDS011;38569;52.722;6.440;2023-04-24T05:00:28;2.60;;;2.30;;
52674;SDS011;38569;52.722;6.440;2023-04-24T05:02:58;3.42;;;2.47;;
52674;SDS011;38569;52.722;6.440;2023-04-24T05:05:25;3.03;;;2.60;;
52674;SDS011;38569;52.722;6.440;2023-04-24T05:07:50;3.50;;;2.63;;
52674;SDS011;38569;52.722;6.440;2023-04-24T05:10:16;3.70;;;2.22;;
52674;SDS011;38569;52.722;6.440;2023-04-24T05:12:42;5.78;;;2.80;;
52674;SDS011;38569;52.722;6.440;2023-04-24T05:15:08;3.65;;;2.63;;
52674;SDS011;38569;52.722;6.440;2023-04-24T05:17:34;3.08;;;2.58;;
52674;SDS011;38569;52.722;6.440;2023-04-24T05:20:01;3.80;;;2.90;;
52674;SDS011;38569;52.722;6.440;2023-04-24T05:22:30;3.55;;;2.40;;
52674;SDS011;38569;52.722;6.440;2023-04-24T05:24:56;3.05;;;2.30;;
52674;SDS011;38569;52.722;6.440;2023-04-24T05:27:22;4.38;;;3.33;;
52674;SDS011;38569;52.722;6.440;2023-04-24T05:29:48;4.75;;;3.28;;
52674;SDS011;38569;52.722;6.440;2023-04-24T05:32:14;7.90;;;4.43;;
52674;SDS011;38569;52.722;6.440;2023-04-24T05:34:40;6.55;;;4.32;;
52674;SDS011;38569;52.722;6.440;2023-04-24T05:37:05;5.30;;;3.55;;
52674;SDS011;38569;52.722;6.440;2023-04-24T05:39:34;5.60;;;3.72;;
52674;SDS011;38569;52.722;6.440;2023-04-24T05:42:00;4.25;;;2.80;;
52674;SDS011;38569;52.722;6.440;2023-04-24T05:44:26;4.03;;;3.05;;
52674;SDS011;38569;52.722;6.440;2023-04-24T05:46:52;4.70;;;3.83;;
52674;SDS011;38569;52.722;6.440;2023-04-24T05:49:21;5.13;;;3.67;;
52674;SDS011;38569;52.722;6.440;2023-04-24T05:51:53;5.50;;;3.30;;
52674;SDS011;38569;52.722;6.440;2023-04-24T05:54:19;9.20;;;4.07;;
52674;SDS011;38569;52.722;6.440;2023-04-24T05:56:45;13.52;;;4.25;;
52674;SDS011;38569;52.722;6.440;2023-04-24T05:59:11;9.05;;;5.10;;
52674;SDS011;38569;52.722;6.440;2023-04-24T06:01:37;18.98;;;6.93;;
52674;SDS011;38569;52.722;6.440;2023-04-24T06:04:03;13.23;;;5.70;;
52674;SDS011;38569;52.722;6.440;2023-04-24T06:06:29;6.60;;;4.78;;
52674;SDS011;38569;52.722;6.440;2023-04-24T06:08:56;19.52;;;6.30;;
52674;SDS011;38569;52.722;6.440;2023-04-24T06:11:22;16.55;;;6.88;;
52674;SDS011;38569;52.722;6.440;2023-04-24T06:13:48;12.20;;;6.63;;
52674;SDS011;38569;52.722;6.440;2023-04-24T06:16:13;15.07;;;7.40;;
52674;SDS011;38569;52.722;6.440;2023-04-24T06:18:39;14.27;;;7.90;;
52674;SDS011;38569;52.722;6.440;2023-04-24T06:21:05;13.05;;;7.75;;
52674;SDS011;38569;52.722;6.440;2023-04-24T06:23:31;12.10;;;7.32;;
52674;SDS011;38569;52.722;6.440;2023-04-24T06:25:58;21.73;;;7.82;;
52674;SDS011;38569;52.722;6.440;2023-04-24T06:28:24;18.02;;;7.30;;
52674;SDS011;38569;52.722;6.440;2023-04-24T06:30:51;13.23;;;6.95;;
52674;SDS011;38569;52.722;6.440;2023-04-24T06:33:16;15.82;;;7.53;;
52674;SDS011;38569;52.722;6.440;2023-04-24T06:35:42;19.33;;;7.95;;
52674;SDS011;38569;52.722;6.440;2023-04-24T06:38:08;29.30;;;8.55;;
52674;SDS011;38569;52.722;6.440;2023-04-24T06:40:34;17.98;;;7.65;;
52674;SDS011;38569;52.722;6.440;2023-04-24T06:43:00;21.08;;;8.73;;
52674;SDS011;38569;52.722;6.440;2023-04-24T06:45:28;31.33;;;9.40;;
52674;SDS011;38569;52.722;6.440;2023-04-24T06:47:54;17.00;;;7.15;;
52674;SDS011;38569;52.722;6.440;2023-04-24T06:50:21;13.88;;;7.28;;
52674;SDS011;38569;52.722;6.440;2023-04-24T06:52:46;18.42;;;7.82;;
52674;SDS011;38569;52.722;6.440;2023-04-24T06:55:12;18.60;;;6.95;;
52674;SDS011;38569;52.722;6.440;2023-04-24T06:57:40;16.75;;;8.77;;
52674;SDS011;38569;52.722;6.440;2023-04-24T07:00:06;15.80;;;7.43;;
52674;SDS011;38569;52.722;6.440;2023-04-24T07:02:34;17.08;;;6.80;;
52674;SDS011;38569;52.722;6.440;2023-04-24T07:05:00;15.32;;;7.32;;
52674;SDS011;38569;52.722;6.440;2023-04-24T07:07:26;13.73;;;7.15;;
52674;SDS011;38569;52.722;6.440;2023-04-24T07:09:52;15.35;;;8.82;;
52674;SDS011;38569;52.722;6.440;2023-04-24T07:12:19;13.98;;;8.48;;
52674;SDS011;38569;52.722;6.440;2023-04-24T07:14:49;17.75;;;9.30;;
52674;SDS011;38569;52.722;6.440;2023-04-24T07:17:15;12.52;;;8.13;;
52674;SDS011;38569;52.722;6.440;2023-04-24T07:19:44;27.20;;;11.65;;
52674;SDS011;38569;52.722;6.440;2023-04-24T07:22:10;20.55;;;8.90;;
52674;SDS011;38569;52.722;6.440;2023-04-24T07:24:42;20.95;;;10.68;;
52674;SDS011;38569;52.722;6.440;2023-04-24T07:27:08;20.67;;;10.07;;
52674;SDS011;38569;52.722;6.440;2023-04-24T07:29:34;19.58;;;9.63;;
52674;SDS011;38569;52.722;6.440;2023-04-24T07:32:00;17.67;;;8.68;;
52674;SDS011;38569;52.722;6.440;2023-04-24T07:34:26;24.17;;;9.23;;
52674;SDS011;38569;52.722;6.440;2023-04-24T07:36:52;23.58;;;9.07;;
52674;SDS011;38569;52.722;6.440;2023-04-24T07:39:18;26.88;;;11.27;;
52674;SDS011;38569;52.722;6.440;2023-04-24T07:41:43;18.30;;;8.10;;
52674;SDS011;38569;52.722;6.440;2023-04-24T07:44:09;32.10;;;10.73;;
52674;SDS011;38569;52.722;6.440;2023-04-24T07:46:35;24.08;;;9.35;;
52674;SDS011;38569;52.722;6.440;2023-04-24T07:49:01;21.67;;;8.65;;
52674;SDS011;38569;52.722;6.440;2023-04-24T07:51:27;16.35;;;8.32;;
52674;SDS011;38569;52.722;6.440;2023-04-24T07:53:53;21.98;;;7.10;;
52674;SDS011;38569;52.722;6.440;2023-04-24T07:56:20;13.55;;;6.63;;
52674;SDS011;38569;52.722;6.440;2023-04-24T07:58:46;15.05;;;7.78;;
52674;SDS011;38569;52.722;6.440;2023-04-24T08:01:14;14.77;;;6.88;;
52674;SDS011;38569;52.722;6.440;2023-04-24T08:03:40;20.02;;;7.53;;
52674;SDS011;38569;52.722;6.440;2023-04-24T08:06:05;12.32;;;6.05;;
52674;SDS011;38569;52.722;6.440;2023-04-24T08:08:31;11.55;;;5.82;;
52674;SDS011;38569;52.722;6.440;2023-04-24T08:10:57;15.50;;;5.72;;
52674;SDS011;38569;52.722;6.440;2023-04-24T08:13:23;14.65;;;6.03;;
52674;SDS011;38569;52.722;6.440;2023-04-24T08:15:49;13.02;;;7.18;;
52674;SDS011;38569;52.722;6.440;2023-04-24T08:18:15;13.50;;;7.35;;
52674;SDS011;38569;52.722;6.440;2023-04-24T08:20:41;19.83;;;9.13;;
52674;SDS011;38569;52.722;6.440;2023-04-24T08:23:07;25.48;;;11.35;;
52674;SDS011;38569;52.722;6.440;2023-04-24T08:25:33;30.05;;;12.07;;
52674;SDS011;38569;52.722;6.440;2023-04-24T08:28:01;23.55;;;12.45;;
52674;SDS011;38569;52.722;6.440;2023-04-24T08:30:28;26.75;;;14.52;;
52674;SDS011;38569;52.722;6.440;2023-04-24T08:32:54;34.03;;;16.83;;
52674;SDS011;38569;52.722;6.440;2023-04-24T08:35:20;37.35;;;15.65;;
52674;SDS011;38569;52.722;6.440;2023-04-24T08:37:45;46.47;;;19.77;;
52674;SDS011;38569;52.722;6.440;2023-04-24T08:40:15;36.33;;;17.92;;
52674;SDS011;38569;52.722;6.440;2023-04-24T08:42:42;32.72;;;16.38;;
52674;SDS011;38569;52.722;6.440;2023-04-24T08:45:10;40.50;;;21.30;;
52674;SDS011;38569;52.722;6.440;2023-04-24T08:47:40;36.83;;;18.80;;
52674;SDS011;38569;52.722;6.440;2023-04-24T08:50:07;45.55;;;22.10;;
52674;SDS011;38569;52.722;6.440;2023-04-24T08:52:34;60.15;;;24.05;;
52674;SDS011;38569;52.722;6.440;2023-04-24T08:55:00;40.03;;;22.38;;
52674;SDS011;38569;52.722;6.440;2023-04-24T08:57:27;45.80;;;24.42;;
52674;SDS011;38569;52.722;6.440;2023-04-24T08:59:54;48.92;;;25.40;;
52674;SDS011;38569;52.722;6.440;2023-04-24T09:02:21;53.38;;;25.42;;
52674;SDS011;38569;52.722;6.440;2023-04-24T09:04:47;53.85;;;25.77;;
52674;SDS011;38569;52.722;6.440;2023-04-24T09:07:17;39.40;;;22.23;;
52674;SDS011;38569;52.722;6.440;2023-04-24T09:09:44;55.92;;;26.73;;
52674;SDS011;38569;52.722;6.440;2023-04-24T09:12:10;37.80;;;22.33;;
52674;SDS011;38569;52.722;6.440;2023-04-24T09:14:37;47.50;;;23.17;;
52674;SDS011;38569;52.722;6.440;2023-04-24T09:17:07;37.78;;;21.38;;
52674;SDS011;38569;52.722;6.440;2023-04-24T09:19:33;38.72;;;20.27;;
52674;SDS011;38569;52.722;6.440;2023-04-24T09:21:59;57.88;;;27.00;;
52674;SDS011;38569;52.722;6.440;2023-04-24T09:24:24;54.45;;;26.52;;
52674;SDS011;38569;52.722;6.440;2023-04-24T09:26:57;46.08;;;23.67;;
52674;SDS011;38569;52.722;6.440;2023-04-24T09:29:24;49.00;;;23.85;;
52674;SDS011;38569;52.722;6.440;2023-04-24T09:31:50;36.38;;;21.23;;
52674;SDS011;38569;52.722;6.440;2023-04-24T09:34:20;39.88;;;23.55;;
52674;SDS011;38569;52.722;6.440;2023-04-24T09:36:48;41.15;;;20.55;;
52674;SDS011;38569;52.722;6.440;2023-04-24T09:39:14;40.90;;;21.23;;
52674;SDS011;38569;52.722;6.440;2023-04-24T09:41:45;33.15;;;17.92;;
52674;SDS011;38569;52.722;6.440;2023-04-24T09:44:21;34.83;;;18.73;;
52674;SDS011;38569;52.722;6.440;2023-04-24T09:46:56;43.03;;;21.48;;
52674;SDS011;38569;52.722;6.440;2023-04-24T09:49:24;34.70;;;17.38;;
52674;SDS011;38569;52.722;6.440;2023-04-24T09:52:07;28.65;;;16.88;;
52674;SDS011;38569;52.722;6.440;2023-04-24T09:54:36;31.75;;;17.90;;
52674;SDS011;38569;52.722;6.440;2023-04-24T09:57:03;35.33;;;18.88;;
52674;SDS011;38569;52.722;6.440;2023-04-24T09:59:29;26.33;;;16.17;;
52674;SDS011;38569;52.722;6.440;2023-04-24T10:01:55;23.67;;;10.07;;
52674;SDS011;38569;52.722;6.440;2023-04-24T10:04:24;22.25;;;12.25;;
52674;SDS011;38569;52.722;6.440;2023-04-24T10:06:52;19.23;;;10.23;;
52674;SDS011;38569;52.722;6.440;2023-04-24T10:09:26;25.55;;;13.18;;
52674;SDS011;38569;52.722;6.440;2023-04-24T10:11:52;16.92;;;10.05;;
52674;SDS011;38569;52.722;6.440;2023-04-24T10:14:20;17.70;;;9.55;;
52674;SDS011;38569;52.722;6.440;2023-04-24T10:16:52;18.45;;;9.10;;
52674;SDS011;38569;52.722;6.440;2023-04-24T10:19:19;17.60;;;8.48;;
52674;SDS011;38569;52.722;6.440;2023-04-24T10:21:45;10.68;;;5.57;;
52674;SDS011;38569;52.722;6.440;2023-04-24T10:24:12;19.35;;;6.57;;
52674;SDS011;38569;52.722;6.440;2023-04-24T10:26:40;15.02;;;6.03;;
52674;SDS011;38569;52.722;6.440;2023-04-24T10:29:07;8.90;;;6.82;;
52674;SDS011;38569;52.722;6.440;2023-04-24T10:31:36;11.85;;;5.22;;
52674;SDS011;38569;52.722;6.440;2023-04-24T10:34:03;13.27;;;5.07;;
52674;SDS011;38569;52.722;6.440;2023-04-24T10:36:30;17.80;;;6.40;;
52674;SDS011;38569;52.722;6.440;2023-04-24T10:39:02;15.52;;;5.45;;
52674;SDS011;38569;52.722;6.440;2023-04-24T10:41:31;11.57;;;5.05;;
52674;SDS011;38569;52.722;6.440;2023-04-24T10:44:04;14.75;;;5.05;;
52674;SDS011;38569;52.722;6.440;2023-04-24T10:46:31;15.48;;;5.20;;
52674;SDS011;38569;52.722;6.440;2023-04-24T10:48:56;11.00;;;4.78;;
52674;SDS011;38569;52.722;6.440;2023-04-24T10:51:23;20.40;;;5.93;;
52674;SDS011;38569;52.722;6.440;2023-04-24T10:54:27;12.77;;;4.95;;
52674;SDS011;38569;52.722;6.440;2023-04-24T10:57:25;12.60;;;5.63;;
52674;SDS011;38569;52.722;6.440;2023-04-24T11:02:39;14.02;;;5.38;;
52674;SDS011;38569;52.722;6.440;2023-04-24T11:05:14;18.45;;;5.20;;
52674;SDS011;38569;52.722;6.440;2023-04-24T11:08:09;12.10;;;4.90;;
52674;SDS011;38569;52.722;6.440;2023-04-24T11:10:41;18.23;;;5.90;;
52674;SDS011;38569;52.722;6.440;2023-04-24T11:13:21;14.90;;;5.22;;
52674;SDS011;38569;52.722;6.440;2023-04-24T11:18:39;10.32;;;3.80;;
52674;SDS011;38569;52.722;6.440;2023-04-24T11:21:11;12.43;;;4.93;;
52674;SDS011;38569;52.722;6.440;2023-04-24T11:23:38;16.15;;;4.72;;
52674;SDS011;38569;52.722;6.440;2023-04-24T11:26:17;13.52;;;3.50;;
52674;SDS011;38569;52.722;6.440;2023-04-24T11:28:49;9.88;;;3.50;;
52674;SDS011;38569;52.722;6.440;2023-04-24T11:31:34;13.60;;;3.35;;
52674;SDS011;38569;52.722;6.440;2023-04-24T11:34:06;13.02;;;3.20;;
52674;SDS011;38569;52.722;6.440;2023-04-24T11:36:36;20.13;;;3.53;;
52674;SDS011;38569;52.722;6.440;2023-04-24T11:39:02;14.45;;;3.58;;
52674;SDS011;38569;52.722;6.440;2023-04-24T11:41:28;9.20;;;3.35;;
52674;SDS011;38569;52.722;6.440;2023-04-24T11:43:54;9.75;;;3.83;;
52674;SDS011;38569;52.722;6.440;2023-04-24T11:46:21;7.53;;;2.45;;
52674;SDS011;38569;52.722;6.440;2023-04-24T11:48:47;8.15;;;3.15;;
52674;SDS011;38569;52.722;6.440;2023-04-24T11:51:13;12.60;;;3.10;;
52674;SDS011;38569;52.722;6.440;2023-04-24T11:53:39;10.95;;;3.88;;
52674;SDS011;38569;52.722;6.440;2023-04-24T11:56:05;10.05;;;3.47;;
52674;SDS011;38569;52.722;6.440;2023-04-24T11:58:38;12.30;;;3.72;;
52674;SDS011;38569;52.722;6.440;2023-04-24T12:01:04;12.70;;;3.40;;
52674;SDS011;38569;52.722;6.440;2023-04-24T12:03:30;11.25;;;3.05;;
52674;SDS011;38569;52.722;6.440;2023-04-24T12:06:09;10.02;;;2.88;;
52674;SDS011;38569;52.722;6.440;2023-04-24T12:08:36;9.80;;;2.78;;
52674;SDS011;38569;52.722;6.440;2023-04-24T12:11:03;10.02;;;3.20;;
52674;SDS011;38569;52.722;6.440;2023-04-24T12:13:32;6.53;;;2.15;;
52674;SDS011;38569;52.722;6.440;2023-04-24T12:15:58;5.60;;;2.20;;
52674;SDS011;38569;52.722;6.440;2023-04-24T12:18:26;7.30;;;2.35;;
52674;SDS011;38569;52.722;6.440;2023-04-24T12:20:52;8.35;;;2.03;;
52674;SDS011;38569;52.722;6.440;2023-04-24T12:23:33;9.95;;;3.45;;
52674;SDS011;38569;52.722;6.440;2023-04-24T12:26:00;6.72;;;1.90;;
52674;SDS011;38569;52.722;6.440;2023-04-24T12:28:34;6.07;;;2.00;;
52674;SDS011;38569;52.722;6.440;2023-04-24T12:31:01;5.80;;;1.58;;
52674;SDS011;38569;52.722;6.440;2023-04-24T12:33:27;3.22;;;1.60;;
52674;SDS011;38569;52.722;6.440;2023-04-24T12:35:57;7.72;;;1.83;;
52674;SDS011;38569;52.722;6.440;2023-04-24T12:38:23;3.33;;;1.40;;
52674;SDS011;38569;52.722;6.440;2023-04-24T12:41:04;5.35;;;1.48;;
52674;SDS011;38569;52.722;6.440;2023-04-24T12:43:31;5.90;;;1.40;;
52674;SDS011;38569;52.722;6.440;2023-04-24T12:45:57;3.65;;;1.55;;
52674;SDS011;38569;52.722;6.440;2023-04-24T12:48:24;6.38;;;1.48;;
52674;SDS011;38569;52.722;6.440;2023-04-24T12:50:54;5.93;;;1.50;;
52674;SDS011;38569;52.722;6.440;2023-04-24T12:53:21;5.38;;;1.60;;
52674;SDS011;38569;52.722;6.440;2023-04-24T12:55:47;4.18;;;1.17;;
52674;SDS011;38569;52.722;6.440;2023-04-24T12:58:18;4.57;;;1.58;;
52674;SDS011;38569;52.722;6.440;2023-04-24T13:00:45;5.13;;;1.50;;
52674;SDS011;38569;52.722;6.440;2023-04-24T13:03:12;2.70;;;1.77;;
52674;SDS011;38569;52.722;6.440;2023-04-24T13:05:38;7.35;;;2.00;;
52674;SDS011;38569;52.722;6.440;2023-04-24T13:08:04;7.35;;;2.05;;
52674;SDS011;38569;52.722;6.440;2023-04-24T13:10:30;6.57;;;2.08;;
52674;SDS011;38569;52.722;6.440;2023-04-24T13:12:56;10.27;;;2.47;;
52674;SDS011;38569;52.722;6.440;2023-04-24T13:15:22;10.50;;;2.55;;
52674;SDS011;38569;52.722;6.440;2023-04-24T13:17:47;5.88;;;1.73;;
52674;SDS011;38569;52.722;6.440;2023-04-24T13:20:13;7.25;;;2.40;;
52674;SDS011;38569;52.722;6.440;2023-04-24T13:22:39;5.88;;;1.73;;
52674;SDS011;38569;52.722;6.440;2023-04-24T13:25:05;7.18;;;1.50;;
52674;SDS011;38569;52.722;6.440;2023-04-24T13:27:32;7.97;;;1.90;;
52674;SDS011;38569;52.722;6.440;2023-04-24T13:29:57;5.85;;;1.35;;
52674;SDS011;38569;52.722;6.440;2023-04-24T13:32:23;4.10;;;1.38;;
52674;SDS011;38569;52.722;6.440;2023-04-24T13:34:50;3.72;;;1.30;;
52674;SDS011;38569;52.722;6.440;2023-04-24T13:37:16;5.65;;;1.33;;
52674;SDS011;38569;52.722;6.440;2023-04-24T13:39:42;5.03;;;1.20;;
52674;SDS011;38569;52.722;6.440;2023-04-24T13:42:08;8.10;;;1.55;;
52674;SDS011;38569;52.722;6.440;2023-04-24T13:44:34;4.60;;;1.02;;
52674;SDS011;38569;52.722;6.440;2023-04-24T13:47:00;8.05;;;1.52;;
52674;SDS011;38569;52.722;6.440;2023-04-24T13:49:25;5.15;;;1.00;;
52674;SDS011;38569;52.722;6.440;2023-04-24T13:51:52;6.85;;;1.73;;
52674;SDS011;38569;52.722;6.440;2023-04-24T13:54:19;5.88;;;1.45;;
52674;SDS011;38569;52.722;6.440;2023-04-24T13:56:45;6.07;;;1.67;;
52674;SDS011;38569;52.722;6.440;2023-04-24T13:59:12;8.45;;;2.08;;
52674;SDS011;38569;52.722;6.440;2023-04-24T14:01:37;5.47;;;1.70;;
52674;SDS011;38569;52.722;6.440;2023-04-24T14:04:03;8.90;;;2.00;;
52674;SDS011;38569;52.722;6.440;2023-04-24T14:06:32;6.47;;;1.95;;
52674;SDS011;38569;52.722;6.440;2023-04-24T14:08:58;7.40;;;2.67;;
52674;SDS011;38569;52.722;6.440;2023-04-24T14:11:24;12.20;;;2.63;;
52674;SDS011;38569;52.722;6.440;2023-04-24T14:13:51;10.15;;;2.33;;
52674;SDS011;38569;52.722;6.440;2023-04-24T14:16:18;8.75;;;2.08;;
52674;SDS011;38569;52.722;6.440;2023-04-24T14:18:43;8.50;;;2.20;;
52674;SDS011;38569;52.722;6.440;2023-04-24T14:21:09;7.53;;;2.75;;
52674;SDS011;38569;52.722;6.440;2023-04-24T14:23:35;15.90;;;3.60;;
52674;SDS011;38569;52.722;6.440;2023-04-24T14:26:01;14.13;;;3.10;;
52674;SDS011;38569;52.722;6.440;2023-04-24T14:28:30;11.63;;;3.28;;
52674;SDS011;38569;52.722;6.440;2023-04-24T14:30:55;12.43;;;3.10;;
52674;SDS011;38569;52.722;6.440;2023-04-24T14:33:21;13.93;;;3.03;;
52674;SDS011;38569;52.722;6.440;2023-04-24T14:35:47;10.77;;;3.20;;
52674;SDS011;38569;52.722;6.440;2023-04-24T14:38:13;10.93;;;2.47;;
52674;SDS011;38569;52.722;6.440;2023-04-24T14:40:39;13.07;;;3.10;;
52674;SDS011;38569;52.722;6.440;2023-04-24T14:43:08;13.48;;;3.45;;
52674;SDS011;38569;52.722;6.440;2023-04-24T14:45:33;10.55;;;2.72;;